Time;durP1;ratioP1;P1;durP2;ratioP2;P2;SDS_P1;SDS_P2;PMS_P1;PMS_P2;Temp;Humidity;BMP_temperature;BMP_pressure;BME280_temperature;BME280_humidity;BME280_pressure;Samples;Min_cycle;Max_cycle;Signal;HPM_P1;HPM_P2
2023/07/01 00:01:38;;;;;;;10.70;10.40;;;17.60;99.90;;;;;;5061528;28;20233;-80
2023/07/01 00:04:07;;;;;;;10.70;10.40;;;17.60;99.90;;;;;;5061336;28;20234;-81
2023/07/01 00:06:45;;;;;;;10.70;10.40;;;17.50;99.90;;;;;;5060394;28;20231;-80
2023/07/01 00:09:15;;;;;;;10.55;10.25;;;17.30;99.90;;;;;;5061280;28;20230;-79
2023/07/01 00:11:44;;;;;;;10.57;10.27;;;17.20;99.90;;;;;;5068469;28;20231;-82
2023/07/01 00:14:13;;;;;;;10.52;10.23;;;17.10;99.90;;;;;;5062514;28;20219;-81
2023/07/01 00:16:43;;;;;;;10.60;10.30;;;17.00;99.90;;;;;;5063760;28;20278;-81
2023/07/01 00:19:12;;;;;;;10.65;10.35;;;16.90;99.90;;;;;;5066074;28;20234;-80
2023/07/01 00:24:39;;;;;;;10.63;10.32;;;16.70;99.90;;;;;;5073841;28;20218;-80
2023/07/01 00:27:09;;;;;;;10.68;10.38;;;16.80;99.90;;;;;;5074986;28;20223;-81
2023/07/01 00:29:38;;;;;;;10.65;10.35;;;16.90;99.90;;;;;;5063041;28;20219;-81
2023/07/01 00:32:08;;;;;;;10.55;10.25;;;16.90;99.90;;;;;;5062435;28;20230;-81
2023/07/01 00:34:37;;;;;;;10.43;10.13;;;16.90;99.90;;;;;;5061983;28;20237;-80
2023/07/01 00:37:19;;;;;;;10.48;10.18;;;16.90;99.90;;;;;;5063989;28;20234;-80
2023/07/01 00:39:46;;;;;;;10.55;10.25;;;16.90;99.90;;;;;;5063183;28;20244;-81
2023/07/01 00:42:14;;;;;;;10.32;10.02;;;17.00;99.90;;;;;;5063897;28;20223;-80
2023/07/01 00:44:43;;;;;;;10.30;10.00;;;16.90;99.90;;;;;;5061852;28;20243;-80
2023/07/01 00:47:13;;;;;;;10.40;10.10;;;16.90;99.90;;;;;;5061829;28;20223;-81
2023/07/01 00:49:42;;;;;;;10.32;10.02;;;16.90;99.90;;;;;;5075987;28;20234;-80
2023/07/01 00:52:24;;;;;;;10.35;10.05;;;16.90;99.90;;;;;;5078307;28;20235;-81
2023/07/01 00:54:51;;;;;;;10.40;10.10;;;16.90;99.90;;;;;;5078349;28;20254;-81
2023/07/01 00:57:20;;;;;;;10.10;9.80;;;16.80;99.90;;;;;;5078836;28;20269;-81
2023/07/01 00:59:49;;;;;;;10.20;9.90;;;16.80;99.90;;;;;;5079259;28;20230;-81
2023/07/01 01:02:28;;;;;;;10.30;10.00;;;16.70;99.90;;;;;;5078824;28;20203;-81
2023/07/01 01:05:10;;;;;;;10.45;10.15;;;16.70;99.90;;;;;;5078535;28;20258;-81
2023/07/01 01:07:52;;;;;;;10.50;10.20;;;16.70;99.90;;;;;;5073132;28;20241;-81
2023/07/01 01:10:23;;;;;;;10.40;10.10;;;16.70;99.90;;;;;;5065102;28;20770;-82
2023/07/01 01:12:53;;;;;;;10.40;10.10;;;16.60;99.90;;;;;;5061756;28;20226;-81
2023/07/01 01:15:21;;;;;;;10.40;10.10;;;16.60;99.90;;;;;;5061312;28;20235;-81
2023/07/01 01:17:53;;;;;;;10.18;9.88;;;16.60;99.90;;;;;;5062097;28;20330;-81
2023/07/01 01:20:23;;;;;;;10.30;10.00;;;16.60;99.90;;;;;;5064651;28;20258;-80
2023/07/01 01:23:00;;;;;;;10.15;9.85;;;16.60;99.90;;;;;;5064423;28;20253;-81
2023/07/01 01:25:37;;;;;;;10.20;9.90;;;16.60;99.90;;;;;;5064203;28;20242;-81
2023/07/01 01:28:09;;;;;;;10.18;9.88;;;16.60;99.90;;;;;;5064213;28;20234;-80
2023/07/01 01:30:37;;;;;;;10.05;9.75;;;16.50;99.90;;;;;;5064070;28;20257;-80
2023/07/01 01:33:08;;;;;;;10.00;9.70;;;16.50;99.90;;;;;;5063798;28;20235;-80
2023/07/01 01:35:35;;;;;;;10.00;9.70;;;16.50;99.90;;;;;;5064001;28;20246;-80
2023/07/01 01:38:15;;;;;;;10.02;9.73;;;16.50;99.90;;;;;;5063840;28;20241;-80
2023/07/01 01:41:00;;;;;;;10.20;9.90;;;16.40;99.90;;;;;;5064652;28;20262;-80
2023/07/01 01:43:40;;;;;;;10.15;9.85;;;16.40;99.90;;;;;;5063784;28;20214;-80
2023/07/01 01:46:09;;;;;;;9.98;9.68;;;16.40;99.90;;;;;;5064298;28;20246;-81
2023/07/01 01:48:39;;;;;;;10.00;9.70;;;16.30;99.90;;;;;;5064080;28;20257;-81
2023/07/01 01:51:08;;;;;;;9.77;9.48;;;16.30;99.90;;;;;;5064093;28;20265;-80
2023/07/01 01:53:39;;;;;;;9.98;9.68;;;16.30;99.90;;;;;;5063713;28;20223;-81
2023/07/01 01:56:07;;;;;;;9.95;9.65;;;16.30;99.90;;;;;;5066553;28;20234;-81
2023/07/01 01:58:37;;;;;;;9.82;9.52;;;16.30;99.90;;;;;;5069675;28;20255;-80
2023/07/01 02:01:05;;;;;;;10.20;9.90;;;16.30;99.90;;;;;;5074583;28;20238;-80
2023/07/01 02:03:33;;;;;;;10.18;9.88;;;16.40;99.90;;;;;;5062507;28;20234;-80
2023/07/01 02:06:03;;;;;;;9.90;9.60;;;16.40;99.90;;;;;;5063425;28;20317;-80
2023/07/01 02:08:32;;;;;;;9.85;9.55;;;16.40;99.90;;;;;;5063273;28;20317;-81
2023/07/01 02:11:01;;;;;;;9.70;9.40;;;16.50;99.90;;;;;;5063471;28;20235;-81
2023/07/01 02:13:31;;;;;;;9.80;9.50;;;16.50;99.90;;;;;;5063372;28;20223;-81
2023/07/01 02:16:09;;;;;;;9.90;9.60;;;16.50;99.90;;;;;;5063006;28;20235;-81
2023/07/01 02:18:38;;;;;;;9.88;9.57;;;16.50;99.90;;;;;;5063196;28;20254;-80
2023/07/01 02:21:10;;;;;;;9.95;9.65;;;16.50;99.90;;;;;;5063021;28;20227;-80
2023/07/01 02:23:39;;;;;;;9.95;9.65;;;16.50;99.90;;;;;;5063527;28;20274;-81
2023/07/01 02:26:09;;;;;;;10.10;9.80;;;16.50;99.90;;;;;;5072777;28;20320;-82
2023/07/01 02:28:38;;;;;;;9.95;9.65;;;16.40;99.90;;;;;;5077759;28;20222;-81
2023/07/01 02:31:19;;;;;;;9.85;9.55;;;16.40;99.90;;;;;;5071504;28;20310;-79
2023/07/01 02:33:47;;;;;;;9.98;9.68;;;16.40;99.90;;;;;;5064714;28;20247;-80
2023/07/01 02:36:15;;;;;;;9.88;9.57;;;16.40;99.90;;;;;;5064138;28;20321;-80
2023/07/01 02:38:44;;;;;;;9.85;9.55;;;16.40;99.90;;;;;;5063320;28;20230;-80
2023/07/01 02:41:14;;;;;;;9.90;9.60;;;16.40;99.90;;;;;;5063062;28;20226;-81
2023/07/01 02:43:43;;;;;;;9.82;9.52;;;16.40;99.90;;;;;;5063418;28;20241;-81
2023/07/01 02:46:16;;;;;;;9.88;9.57;;;16.40;99.90;;;;;;5063399;28;20277;-81
2023/07/01 02:48:44;;;;;;;9.95;9.65;;;16.40;99.90;;;;;;5063682;28;20261;-80
2023/07/01 02:51:12;;;;;;;9.80;9.50;;;16.40;99.90;;;;;;5063063;28;20291;-79
2023/07/01 02:53:41;;;;;;;9.77;9.48;;;16.40;99.90;;;;;;5062948;28;20322;-81
2023/07/01 02:56:11;;;;;;;9.80;9.50;;;16.30;99.90;;;;;;5062578;28;20246;-81
2023/07/01 02:58:40;;;;;;;10.00;9.70;;;16.30;99.90;;;;;;5062466;28;20242;-81
2023/07/01 03:01:09;;;;;;;9.80;9.50;;;16.30;99.90;;;;;;5062837;28;20295;-80
2023/07/01 03:03:51;;;;;;;9.77;9.48;;;16.40;99.90;;;;;;5062935;28;20266;-80
2023/07/01 03:06:18;;;;;;;10.10;9.80;;;16.40;99.90;;;;;;5063471;28;20230;-81
2023/07/01 03:08:47;;;;;;;10.30;10.00;;;16.40;99.90;;;;;;5063723;28;20231;-80
2023/07/01 03:11:16;;;;;;;10.30;10.00;;;16.40;99.90;;;;;;5063563;28;20237;-80
2023/07/01 03:13:46;;;;;;;10.27;9.98;;;16.50;99.90;;;;;;5063179;28;20242;-79
2023/07/01 03:16:15;;;;;;;10.30;10.00;;;16.50;99.90;;;;;;5063875;28;20300;-80
2023/07/01 03:21:31;;;;;;;10.23;9.93;;;16.60;99.90;;;;;;5062486;28;20296;-80
2023/07/01 03:24:01;;;;;;;10.40;10.10;;;16.60;99.90;;;;;;5061379;28;20227;-81
2023/07/01 03:26:30;;;;;;;10.35;10.05;;;16.60;99.90;;;;;;5062452;28;20288;-81
2023/07/01 03:29:00;;;;;;;10.43;10.13;;;16.60;99.90;;;;;;5063232;28;20238;-81
2023/07/01 03:31:29;;;;;;;10.43;10.13;;;16.60;99.90;;;;;;5063310;28;20229;-81
2023/07/01 03:36:46;;;;;;;10.25;9.95;;;16.70;99.90;;;;;;5062458;28;20227;-81
2023/07/01 03:39:16;;;;;;;10.40;10.10;;;16.70;99.90;;;;;;5061825;28;20270;-80
2023/07/01 03:41:44;;;;;;;10.15;9.85;;;16.70;99.90;;;;;;5069584;28;20221;-81
2023/07/01 03:44:14;;;;;;;10.25;9.95;;;16.70;99.90;;;;;;5061965;28;20314;-81
2023/07/01 03:46:43;;;;;;;10.20;9.90;;;16.80;99.90;;;;;;5061978;28;20301;-79
2023/07/01 03:49:25;;;;;;;10.30;10.00;;;16.70;99.90;;;;;;5062759;28;20279;-81
2023/07/01 03:54:38;;;;;;;10.43;10.13;;;16.80;99.90;;;;;;5063436;28;20233;-81
2023/07/01 03:57:09;;;;;;;10.27;9.98;;;16.80;99.90;;;;;;5063589;28;20353;-81
2023/07/01 03:59:38;;;;;;;10.35;10.05;;;16.80;99.90;;;;;;5063154;28;20243;-81
2023/07/01 04:02:06;;;;;;;10.30;10.00;;;16.80;99.90;;;;;;5062220;28;20234;-80
2023/07/01 04:07:23;;;;;;;10.23;9.93;;;16.80;99.90;;;;;;5060111;28;20253;-81
2023/07/01 04:09:52;;;;;;;10.40;10.10;;;16.80;99.90;;;;;;5061902;28;20230;-81
2023/07/01 04:12:22;;;;;;;10.20;9.90;;;16.80;99.90;;;;;;5062546;28;20230;-81
2023/07/01 04:14:51;;;;;;;10.52;10.23;;;16.80;99.90;;;;;;5062015;28;20230;-81
2023/07/01 04:17:21;;;;;;;10.30;10.00;;;16.90;99.90;;;;;;5062474;28;20265;-81
2023/07/01 04:19:54;;;;;;;10.50;10.20;;;16.90;99.90;;;;;;5062669;28;20249;-81
2023/07/01 04:22:22;;;;;;;10.45;10.15;;;16.90;99.90;;;;;;5062646;28;20231;-81
2023/07/01 04:24:51;;;;;;;10.35;10.05;;;16.90;99.90;;;;;;5062047;28;20329;-81
2023/07/01 04:27:20;;;;;;;10.43;10.13;;;16.90;99.90;;;;;;5061552;28;20302;-81
2023/07/01 04:29:49;;;;;;;10.65;10.35;;;16.90;99.90;;;;;;5063541;28;20223;-80
2023/07/01 04:32:19;;;;;;;10.38;10.07;;;17.00;99.90;;;;;;5072973;28;20226;-80
2023/07/01 04:34:48;;;;;;;10.55;10.25;;;17.00;99.90;;;;;;5074158;28;20261;-82
2023/07/01 04:40:05;;;;;;;10.52;10.23;;;17.10;99.90;;;;;;5074668;28;20227;-80
2023/07/01 04:42:35;;;;;;;10.27;9.98;;;17.10;99.90;;;;;;5071791;28;20282;-80
2023/07/01 04:45:05;;;;;;;10.50;10.20;;;17.10;99.90;;;;;;5067494;28;20226;-81
2023/07/01 04:47:34;;;;;;;10.68;10.38;;;17.20;99.90;;;;;;5062542;28;20261;-81
2023/07/01 04:50:03;;;;;;;10.68;10.38;;;17.20;99.90;;;;;;5062068;28;20337;-81
2023/07/01 04:52:45;;;;;;;10.65;10.35;;;17.20;99.90;;;;;;5062496;28;20242;-82
2023/07/01 04:55:12;;;;;;;10.80;10.50;;;17.20;99.90;;;;;;5085244;22;20314;-77
2023/07/01 04:57:40;;;;;;;10.98;10.68;;;17.30;99.90;;;;;;5062968;28;20257;-78
2023/07/01 05:00:11;;;;;;;10.85;10.55;;;17.20;99.90;;;;;;5063691;28;20234;-77
2023/07/01 05:02:39;;;;;;;10.90;10.60;;;17.20;99.90;;;;;;5062906;28;20222;-78
2023/07/01 05:05:10;;;;;;;10.90;10.60;;;17.10;99.90;;;;;;5070338;28;20234;-77
2023/07/01 05:07:39;;;;;;;10.93;10.63;;;17.10;99.90;;;;;;5062918;28;21153;-77
2023/07/01 05:10:08;;;;;;;11.38;10.98;;;17.10;99.90;;;;;;5061987;28;20234;-77
2023/07/01 05:12:35;;;;;;;11.02;10.73;;;17.20;99.90;;;;;;5063842;28;20230;-78
2023/07/01 05:15:03;;;;;;;11.00;10.70;;;17.20;99.90;;;;;;5062178;28;20237;-78
2023/07/01 05:17:31;;;;;;;11.07;10.77;;;17.30;99.90;;;;;;5070031;28;20230;-78
2023/07/01 05:19:58;;;;;;;10.93;10.63;;;17.30;99.90;;;;;;5072466;28;20288;-79
2023/07/01 05:22:26;;;;;;;11.30;10.90;;;17.40;99.90;;;;;;5069641;28;20230;-78
2023/07/01 05:24:55;;;;;;;11.13;10.80;;;17.50;99.90;;;;;;5063844;28;20325;-79
2023/07/01 05:27:22;;;;;;;11.10;10.77;;;17.50;99.90;;;;;;5063655;28;20226;-78
2023/07/01 05:29:50;;;;;;;11.20;10.82;;;17.60;99.90;;;;;;5064143;28;20237;-78
2023/07/01 05:32:17;;;;;;;11.18;10.85;;;17.70;99.90;;;;;;5064786;28;20245;-78
2023/07/01 05:34:47;;;;;;;11.10;10.77;;;17.70;99.90;;;;;;5063074;28;20250;-79
2023/07/01 05:37:15;;;;;;;11.30;10.90;;;17.80;99.90;;;;;;5061709;28;20261;-78
2023/07/01 05:39:42;;;;;;;11.27;10.88;;;17.90;99.90;;;;;;5062750;28;20262;-78
2023/07/01 05:42:11;;;;;;;11.23;10.82;;;17.90;99.90;;;;;;5061388;28;20322;-78
2023/07/01 05:44:39;;;;;;;11.38;10.98;;;17.90;99.90;;;;;;5061475;28;20321;-78
2023/07/01 05:47:07;;;;;;;11.40;11.00;;;18.00;99.90;;;;;;5062248;28;20238;-78
2023/07/01 05:49:34;;;;;;;11.30;10.90;;;18.00;99.90;;;;;;5061876;28;20230;-78
2023/07/01 05:52:02;;;;;;;11.27;10.88;;;18.00;99.90;;;;;;5061651;28;20239;-78
2023/07/01 05:54:30;;;;;;;11.27;10.88;;;18.10;99.90;;;;;;5062233;28;20752;-77
2023/07/01 05:56:57;;;;;;;11.30;10.90;;;18.20;99.90;;;;;;5063204;28;20309;-78
2023/07/01 05:59:27;;;;;;;11.30;10.90;;;18.30;99.90;;;;;;5062882;28;20289;-78
2023/07/01 06:01:57;;;;;;;11.30;10.90;;;18.40;99.90;;;;;;5071537;28;20227;-78
2023/07/01 06:04:25;;;;;;;11.32;10.93;;;18.40;99.90;;;;;;5065787;28;20295;-78
2023/07/01 06:06:53;;;;;;;11.02;10.70;;;18.50;99.90;;;;;;5065276;28;20245;-78
2023/07/01 06:09:20;;;;;;;11.30;10.90;;;18.50;99.90;;;;;;5061322;28;20245;-78
2023/07/01 06:11:52;;;;;;;11.40;11.00;;;18.70;99.90;;;;;;5059958;28;20223;-78
2023/07/01 06:14:20;;;;;;;11.30;10.90;;;18.80;99.90;;;;;;5059146;28;20227;-78
2023/07/01 06:16:49;;;;;;;11.35;10.95;;;18.90;99.90;;;;;;5061108;28;20294;-78
2023/07/01 06:19:22;;;;;;;11.20;10.80;;;19.00;99.90;;;;;;5060481;28;20235;-77
2023/07/01 06:21:50;;;;;;;11.52;11.13;;;19.10;99.90;;;;;;5059835;28;20238;-78
2023/07/01 06:24:17;;;;;;;11.20;10.80;;;19.20;99.90;;;;;;5058915;28;20231;-78
2023/07/01 06:26:45;;;;;;;11.43;11.02;;;19.30;99.90;;;;;;5058901;28;20281;-78
2023/07/01 06:29:13;;;;;;;11.90;11.50;;;19.30;99.90;;;;;;5059402;28;20415;-77
2023/07/01 06:31:41;;;;;;;11.38;10.98;;;19.40;99.90;;;;;;5058763;28;20241;-78
2023/07/01 06:34:16;;;;;;;11.40;11.00;;;19.40;99.90;;;;;;5059576;28;20211;-78
2023/07/01 06:36:50;;;;;;;11.20;10.90;;;19.60;99.90;;;;;;5064000;28;20249;-79
2023/07/01 06:39:18;;;;;;;11.00;10.70;;;19.60;99.90;;;;;;5060974;28;20293;-80
2023/07/01 06:41:45;;;;;;;11.30;10.95;;;19.80;99.90;;;;;;5061483;28;20296;-79
2023/07/01 06:44:15;;;;;;;11.27;10.90;;;19.90;99.90;;;;;;5061572;28;20250;-78
2023/07/01 06:46:43;;;;;;;11.52;11.13;;;19.90;99.90;;;;;;5061845;28;20231;-80
2023/07/01 06:49:11;;;;;;;11.25;10.93;;;19.90;99.90;;;;;;5061098;28;20277;-79
2023/07/01 06:51:42;;;;;;;11.43;11.02;;;19.90;99.90;;;;;;5061722;28;20267;-79
2023/07/01 06:54:11;;;;;;;11.13;10.82;;;20.00;99.90;;;;;;5059726;28;20227;-80
2023/07/01 06:56:42;;;;;;;11.27;10.98;;;20.10;99.90;;;;;;5067850;28;20223;-79
2023/07/01 06:59:11;;;;;;;11.60;11.20;;;20.20;99.90;;;;;;5072939;28;20245;-80
2023/07/01 07:01:42;;;;;;;11.27;10.93;;;20.20;99.90;;;;;;5063192;28;20246;-80
2023/07/01 07:04:10;;;;;;;11.10;10.80;;;20.40;99.90;;;;;;5061210;28;20222;-78
2023/07/01 07:06:39;;;;;;;11.05;10.75;;;20.50;99.90;;;;;;5062519;28;20940;-78
2023/07/01 07:09:07;;;;;;;11.00;10.70;;;20.50;99.90;;;;;;5061092;28;20254;-79
2023/07/01 07:11:35;;;;;;;10.95;10.65;;;20.50;99.90;;;;;;5063110;28;20594;-79
2023/07/01 07:14:03;;;;;;;11.00;10.70;;;20.50;99.90;;;;;;5061060;28;20321;-78
2023/07/01 07:16:35;;;;;;;11.07;10.77;;;20.60;99.90;;;;;;5062422;28;20223;-79
2023/07/01 07:19:04;;;;;;;10.90;10.60;;;20.70;99.90;;;;;;5063719;28;20234;-80
2023/07/01 07:21:42;;;;;;;10.82;10.52;;;20.70;99.90;;;;;;5063727;28;20223;-79
2023/07/01 07:24:21;;;;;;;11.07;10.77;;;20.90;99.90;;;;;;5062623;28;20214;-81
2023/07/01 07:26:57;;;;;;;10.90;10.60;;;21.00;99.90;;;;;;5061289;28;20309;-80
2023/07/01 07:29:30;;;;;;;11.10;10.80;;;21.00;99.90;;;;;;5059416;28;20226;-78
2023/07/01 07:31:58;;;;;;;10.95;10.65;;;21.20;99.90;;;;;;5061439;28;20277;-80
2023/07/01 07:34:29;;;;;;;10.82;10.52;;;21.30;99.90;;;;;;5060866;28;20286;-79
2023/07/01 07:36:58;;;;;;;10.80;10.50;;;21.30;99.90;;;;;;5060925;28;20218;-79
2023/07/01 07:39:27;;;;;;;11.10;10.80;;;21.30;99.90;;;;;;5063477;28;20329;-79
2023/07/01 07:41:56;;;;;;;11.00;10.70;;;21.40;99.90;;;;;;5061812;28;20242;-78
2023/07/01 07:44:26;;;;;;;11.10;10.80;;;21.40;99.90;;;;;;5061382;28;20239;-79
2023/07/01 07:46:55;;;;;;;11.02;10.73;;;21.40;99.90;;;;;;5061175;28;20234;-79
2023/07/01 07:49:24;;;;;;;10.82;10.52;;;21.30;99.90;;;;;;5062020;28;20318;-79
2023/07/01 07:51:52;;;;;;;10.82;10.52;;;21.20;99.90;;;;;;5063549;28;20231;-80
2023/07/01 07:54:20;;;;;;;10.80;10.50;;;21.30;99.90;;;;;;5068508;28;20255;-80
2023/07/01 07:56:50;;;;;;;10.70;10.40;;;21.40;99.90;;;;;;5069930;28;20231;-81
2023/07/01 07:59:19;;;;;;;10.65;10.35;;;21.50;99.90;;;;;;5069962;28;20234;-79
2023/07/01 08:01:47;;;;;;;10.32;10.02;;;21.60;99.90;;;;;;5068165;28;20333;-78
2023/07/01 08:04:14;;;;;;;10.40;10.10;;;21.70;99.90;;;;;;5068145;28;20261;-79
2023/07/01 08:06:42;;;;;;;10.40;10.10;;;21.80;99.90;;;;;;5069318;28;20302;-79
2023/07/01 08:09:09;;;;;;;10.73;10.43;;;21.90;99.90;;;;;;5068678;28;21012;-79
2023/07/01 08:11:37;;;;;;;10.57;10.27;;;22.00;99.90;;;;;;5067362;28;20234;-80
2023/07/01 08:14:06;;;;;;;10.80;10.50;;;22.10;99.90;;;;;;5071303;28;20229;-79
2023/07/01 08:16:34;;;;;;;10.80;10.50;;;22.20;99.90;;;;;;5073391;28;20303;-80
2023/07/01 08:19:02;;;;;;;10.82;10.52;;;22.20;99.90;;;;;;5072274;28;20302;-81
2023/07/01 08:21:33;;;;;;;10.75;10.45;;;22.20;99.90;;;;;;5066853;28;20235;-80
2023/07/01 08:24:00;;;;;;;10.60;10.30;;;22.40;99.90;;;;;;5065440;28;20246;-80
2023/07/01 08:26:30;;;;;;;10.70;10.40;;;22.50;99.90;;;;;;5063805;28;20233;-79
2023/07/01 08:28:59;;;;;;;10.73;10.43;;;22.60;99.90;;;;;;5063576;28;20354;-82
2023/07/01 08:31:34;;;;;;;10.70;10.40;;;22.80;99.90;;;;;;5065092;28;20253;-84
2023/07/01 08:34:07;;;;;;;10.85;10.55;;;22.90;99.90;;;;;;5063969;28;20219;-82
2023/07/01 08:36:37;;;;;;;11.00;10.70;;;22.90;99.90;;;;;;5063981;28;20233;-82
2023/07/01 08:39:06;;;;;;;10.45;10.15;;;22.90;99.90;;;;;;5063820;28;20235;-82
2023/07/01 08:41:45;;;;;;;10.20;9.90;;;23.00;99.90;;;;;;5063577;28;20277;-81
2023/07/01 08:44:13;;;;;;;10.45;10.15;;;23.10;99.90;;;;;;5063676;28;20321;-81
2023/07/01 08:46:46;;;;;;;10.70;10.40;;;23.00;99.90;;;;;;5064529;28;20325;-81
2023/07/01 08:49:21;;;;;;;10.52;10.23;;;23.00;99.90;;;;;;5061431;28;20383;-82
2023/07/01 08:51:55;;;;;;;10.50;10.20;;;23.10;99.90;;;;;;5065342;28;20223;-81
2023/07/01 08:54:23;;;;;;;10.90;10.60;;;23.30;99.90;;;;;;5067008;28;20234;-81
2023/07/01 08:56:51;;;;;;;10.82;10.52;;;23.40;99.90;;;;;;5060442;28;20254;-80
2023/07/01 08:59:19;;;;;;;10.40;10.10;;;23.50;99.90;;;;;;5060498;28;20238;-81
2023/07/01 09:02:04;;;;;;;10.63;10.32;;;23.50;99.90;;;;;;5068985;28;20231;-82
2023/07/01 09:04:35;;;;;;;10.48;10.18;;;23.40;99.90;;;;;;5068829;28;20258;-82
2023/07/01 09:07:03;;;;;;;10.30;10.00;;;23.40;99.90;;;;;;5076633;28;20238;-84
2023/07/01 09:09:33;;;;;;;10.50;10.20;;;23.20;99.90;;;;;;5077223;28;20246;-82
2023/07/01 09:12:04;;;;;;;10.32;10.02;;;23.20;99.90;;;;;;5074078;28;20322;-83
2023/07/01 09:15:02;;;;;;;10.40;10.10;;;23.20;99.90;;;;;;5062822;28;20250;-80
2023/07/01 09:17:39;;;;;;;10.50;10.20;;;23.20;99.90;;;;;;5061836;28;20235;-82
2023/07/01 09:20:10;;;;;;;10.50;10.20;;;23.10;99.90;;;;;;5062809;28;20234;-80
2023/07/01 09:22:43;;;;;;;10.68;10.38;;;23.00;99.90;;;;;;5064792;28;20347;-80
2023/07/01 09:25:13;;;;;;;10.30;10.00;;;23.10;99.90;;;;;;5062541;28;20231;-81
2023/07/01 09:27:46;;;;;;;10.40;10.10;;;23.40;99.90;;;;;;5064479;28;20235;-80
2023/07/01 09:30:32;;;;;;;10.27;9.98;;;23.70;99.90;;;;;;5063583;28;20298;-80
2023/07/01 09:33:20;;;;;;;10.13;9.82;;;23.80;99.90;;;;;;5062663;28;20231;-80
2023/07/01 09:35:54;;;;;;;10.57;10.27;;;23.70;99.90;;;;;;5061367;28;20258;-81
2023/07/01 09:38:22;;;;;;;10.70;10.40;;;23.80;99.90;;;;;;5063569;28;20226;-80
2023/07/01 09:40:49;;;;;;;10.82;10.52;;;23.90;99.90;;;;;;5065999;28;20261;-81
2023/07/01 09:43:19;;;;;;;10.63;10.32;;;24.00;99.90;;;;;;5068770;28;20223;-81
2023/07/01 09:45:56;;;;;;;10.70;10.40;;;24.10;99.90;;;;;;5066358;28;20292;-82
2023/07/01 09:48:27;;;;;;;10.60;10.30;;;24.20;99.90;;;;;;5058396;28;20294;-81
2023/07/01 09:51:02;;;;;;;10.80;10.50;;;24.30;99.90;;;;;;5066040;28;20227;-81
2023/07/01 09:53:34;;;;;;;10.88;10.57;;;24.50;99.90;;;;;;5064813;28;20692;-80
2023/07/01 09:56:03;;;;;;;10.60;10.30;;;24.50;99.90;;;;;;5065225;28;20245;-80
2023/07/01 09:58:33;;;;;;;10.70;10.40;;;24.50;99.90;;;;;;5064020;28;20299;-77
2023/07/01 10:01:01;;;;;;;10.68;10.38;;;24.30;99.90;;;;;;5063970;28;20293;-79
2023/07/01 10:03:31;;;;;;;10.68;10.38;;;24.20;99.90;;;;;;5064234;28;20329;-80
2023/07/01 10:05:59;;;;;;;10.52;10.23;;;24.10;99.90;;;;;;5062723;28;20231;-81
2023/07/01 10:08:28;;;;;;;10.75;10.45;;;24.00;99.90;;;;;;5066049;28;20231;-79
2023/07/01 10:11:03;;;;;;;10.70;10.40;;;23.80;99.90;;;;;;5064217;28;20231;-79
2023/07/01 10:13:34;;;;;;;10.75;10.45;;;24.00;99.90;;;;;;5064897;28;20313;-80
2023/07/01 10:16:03;;;;;;;10.80;10.50;;;24.00;99.90;;;;;;5055421;28;20235;-79
2023/07/01 10:18:35;;;;;;;10.70;10.40;;;24.20;99.90;;;;;;5056998;28;20238;-80
2023/07/01 10:21:30;;;;;;;10.68;10.38;;;24.30;99.90;;;;;;5063064;28;20239;-80
2023/07/01 10:24:01;;;;;;;10.52;10.23;;;24.40;99.90;;;;;;5062556;28;20235;-81
2023/07/01 10:26:40;;;;;;;10.73;10.43;;;24.60;99.90;;;;;;5055453;28;20230;-81
2023/07/01 10:29:53;;;;;;;10.68;10.38;;;24.70;99.90;;;;;;5065538;28;20230;-80
2023/07/01 10:32:33;;;;;;;10.48;10.18;;;24.80;99.90;;;;;;5064052;28;20318;-80
2023/07/01 10:35:17;;;;;;;10.63;10.32;;;24.70;99.90;;;;;;5061112;28;20289;-79
2023/07/01 10:38:21;;;;;;;10.80;10.50;;;24.70;99.90;;;;;;5062480;28;20230;-80
2023/07/01 10:40:49;;;;;;;10.98;10.68;;;24.70;99.90;;;;;;5059542;28;20293;-81
2023/07/01 10:43:30;;;;;;;10.80;10.50;;;24.70;99.90;;;;;;5065437;28;20305;-81
2023/07/01 10:46:13;;;;;;;10.48;10.18;;;24.70;99.90;;;;;;5065077;28;20281;-81
2023/07/01 10:48:42;;;;;;;10.57;10.27;;;24.90;99.90;;;;;;5066633;28;20226;-81
2023/07/01 10:51:12;;;;;;;10.60;10.30;;;25.10;99.90;;;;;;5067682;28;20321;-80
2023/07/01 10:54:02;;;;;;;10.85;10.55;;;25.40;99.90;;;;;;5066698;28;20231;-79
2023/07/01 10:56:32;;;;;;;10.68;10.38;;;25.70;99.90;;;;;;5090849;22;20238;-78
2023/07/01 10:59:22;;;;;;;10.88;10.57;;;26.00;99.90;;;;;;5068577;28;20230;-78
2023/07/01 11:01:51;;;;;;;10.95;10.65;;;26.20;99.90;;;;;;5078119;28;20236;-78
2023/07/01 11:04:20;;;;;;;11.10;10.80;;;26.10;99.90;;;;;;5043677;28;20435;-79
2023/07/01 11:06:54;;;;;;;11.10;10.80;;;25.80;99.90;;;;;;5042058;28;20234;-80
2023/07/01 11:09:32;;;;;;;11.00;10.70;;;25.50;99.90;;;;;;5052112;28;20230;-81
2023/07/01 11:12:02;;;;;;;11.07;10.77;;;25.30;99.90;;;;;;5052577;28;20250;-79
2023/07/01 11:14:49;;;;;;;11.00;10.70;;;25.40;99.90;;;;;;5038282;28;20311;-79
2023/07/01 11:17:20;;;;;;;11.18;10.88;;;25.80;99.90;;;;;;5049223;28;20262;-80
2023/07/01 11:19:54;;;;;;;11.15;10.85;;;26.10;99.90;;;;;;5041783;28;20232;-79
2023/07/01 11:22:23;;;;;;;11.10;10.80;;;26.20;99.90;;;;;;5048940;28;20287;-78
2023/07/01 11:24:51;;;;;;;11.02;10.73;;;26.20;99.90;;;;;;5047929;28;20244;-81
2023/07/01 11:27:21;;;;;;;11.20;10.90;;;26.10;99.90;;;;;;5049585;28;20235;-80
2023/07/01 11:29:48;;;;;;;11.18;10.88;;;26.40;99.90;;;;;;5048643;28;20266;-79
2023/07/01 11:32:17;;;;;;;11.20;10.90;;;26.60;99.90;;;;;;5060430;28;20239;-79
2023/07/01 11:34:47;;;;;;;11.20;10.90;;;26.70;99.90;;;;;;5047475;28;20246;-80
2023/07/01 11:37:28;;;;;;;11.07;10.77;;;26.70;99.90;;;;;;5050258;28;20239;-79
2023/07/01 11:39:55;;;;;;;11.27;10.98;;;26.60;99.90;;;;;;5040855;28;20302;-79
2023/07/01 11:42:26;;;;;;;11.20;10.90;;;26.60;99.90;;;;;;5049965;28;20273;-79
2023/07/01 11:44:55;;;;;;;10.70;10.40;;;26.60;99.90;;;;;;5041111;28;20294;-80
2023/07/01 11:47:23;;;;;;;10.73;10.43;;;26.50;99.90;;;;;;5049444;28;20289;-80
2023/07/01 11:49:52;;;;;;;10.60;10.30;;;26.30;99.90;;;;;;5041472;28;20224;-80
2023/07/01 11:52:31;;;;;;;10.80;10.50;;;26.60;99.90;;;;;;5040784;28;20334;-79
2023/07/01 11:54:58;;;;;;;10.70;10.40;;;26.70;99.90;;;;;;5058918;28;20249;-79
2023/07/01 11:57:32;;;;;;;10.70;10.40;;;26.60;99.90;;;;;;5047201;28;20389;-80
2023/07/01 12:00:02;;;;;;;10.90;10.60;;;26.50;99.90;;;;;;5041101;28;20231;-78
2023/07/01 12:02:38;;;;;;;10.57;10.27;;;26.70;99.90;;;;;;5041749;28;20236;-79
2023/07/01 12:05:07;;;;;;;10.70;10.40;;;27.00;99.90;;;;;;5041384;28;20236;-79
2023/07/01 12:07:38;;;;;;;10.90;10.60;;;27.00;99.90;;;;;;5044633;28;20287;-80
2023/07/01 12:10:22;;;;;;;10.80;10.50;;;27.10;99.90;;;;;;5042733;28;20331;-79
2023/07/01 12:12:50;;;;;;;10.60;10.30;;;27.10;99.90;;;;;;5040483;28;20259;-79
2023/07/01 12:15:19;;;;;;;10.60;10.30;;;27.30;99.90;;;;;;5039965;28;20728;-79
2023/07/01 12:17:46;;;;;;;10.50;10.20;;;27.30;99.90;;;;;;5037577;28;20238;-80
2023/07/01 12:20:14;;;;;;;10.80;10.50;;;27.20;99.90;;;;;;5039662;28;20238;-77
2023/07/01 12:22:43;;;;;;;10.70;10.40;;;27.30;99.90;;;;;;5039572;28;20234;-78
2023/07/01 12:25:14;;;;;;;10.80;10.50;;;26.70;99.90;;;;;;5051192;28;20359;-80
2023/07/01 12:27:46;;;;;;;10.88;10.57;;;26.70;99.90;;;;;;5052676;28;20254;-80
2023/07/01 12:30:14;;;;;;;10.82;10.52;;;26.40;99.90;;;;;;5041231;28;20220;-82
2023/07/01 12:32:42;;;;;;;10.60;10.30;;;26.30;99.90;;;;;;5041121;28;21044;-82
2023/07/01 12:35:11;;;;;;;10.68;10.38;;;26.30;99.90;;;;;;5041794;28;20235;-81
2023/07/01 12:37:44;;;;;;;10.45;10.15;;;26.60;99.90;;;;;;5041847;28;20237;-84
2023/07/01 12:40:13;;;;;;;10.90;10.60;;;27.30;99.90;;;;;;5042493;28;20208;-85
2023/07/01 12:42:41;;;;;;;11.10;10.80;;;27.20;99.90;;;;;;5042360;28;20242;-83
2023/07/01 12:45:10;;;;;;;10.85;10.55;;;27.50;99.90;;;;;;5040033;28;20227;-85
2023/07/01 12:47:40;;;;;;;10.93;10.63;;;27.50;99.90;;;;;;5055089;28;20389;-82
2023/07/01 12:50:10;;;;;;;10.93;10.63;;;27.60;99.90;;;;;;5056022;28;20223;-84
2023/07/01 12:52:38;;;;;;;10.75;10.45;;;27.40;99.90;;;;;;5056116;28;20266;-84
2023/07/01 12:57:54;;;;;;;10.60;10.30;;;27.50;99.90;;;;;;5043305;28;20220;-82
2023/07/01 13:00:24;;;;;;;10.75;10.45;;;27.60;99.90;;;;;;5041990;28;20267;-85
2023/07/01 13:02:53;;;;;;;10.57;10.27;;;27.90;99.90;;;;;;5050386;28;20253;-84
2023/07/01 13:05:22;;;;;;;10.70;10.40;;;28.40;99.90;;;;;;5077083;28;20231;-86
2023/07/01 13:07:54;;;;;;;10.93;10.63;;;28.50;99.90;;;;;;5079962;28;20218;-85
2023/07/01 13:10:24;;;;;;;10.95;10.65;;;28.30;99.90;;;;;;5080242;28;20226;-86